createdAt,value
2023-01-27T00:01:45.165Z,99734.47
2023-01-27T00:04:14.015Z,99737.06
2023-01-27T00:06:44.161Z,99731.94
2023-01-27T00:09:13.503Z,99726.88
2023-01-27T00:11:59.736Z,99727.75
2023-01-27T00:14:28.494Z,99731.94
2023-01-27T00:16:57.468Z,99727.75
2023-01-27T00:19:27.361Z,99721.00
2023-01-27T00:22:14.765Z,99716.00
2023-01-27T00:24:43.620Z,99723.59
2023-01-27T00:27:12.538Z,99716.75
2023-01-27T00:29:41.883Z,99714.28
2023-01-27T00:32:29.052Z,99715.94
2023-01-27T00:34:57.724Z,99715.09
2023-01-27T00:37:27.697Z,99716.00
2023-01-27T00:39:56.414Z,99718.53
2023-01-27T00:42:25.071Z,99710.94
2023-01-27T00:45:11.333Z,99707.50
2023-01-27T00:47:41.181Z,99710.03
2023-01-27T00:50:11.818Z,99709.16
2023-01-27T00:52:42.153Z,99712.53
2023-01-27T00:55:11.814Z,99712.53
2023-01-27T00:57:40.552Z,99707.47
2023-01-27T01:00:12.170Z,99713.38
2023-01-27T01:02:40.957Z,99703.25
2023-01-27T01:05:10.666Z,99703.28
2023-01-27T01:07:39.307Z,99696.50
2023-01-27T01:10:12.994Z,99700.75
2023-01-27T01:12:41.894Z,99704.09
2023-01-27T01:15:11.671Z,99706.63
2023-01-27T01:17:40.361Z,99704.94
2023-01-27T01:20:10.914Z,99699.88
2023-01-27T01:22:39.749Z,99716.72
2023-01-27T01:25:10.751Z,99715.03
2023-01-27T01:27:39.428Z,99710.78
2023-01-27T01:30:10.530Z,99707.44
2023-01-27T01:32:39.367Z,99709.97
2023-01-27T01:35:08.963Z,99715.03
2023-01-27T01:37:37.579Z,99714.13
2023-01-27T01:40:08.403Z,99711.59
2023-01-27T01:42:58.201Z,99715.00
2023-01-27T01:45:53.629Z,99716.66
2023-01-27T01:48:36.245Z,99716.66
2023-01-27T01:51:10.822Z,99715.78
2023-01-27T01:53:45.606Z,99713.28
2023-01-27T01:56:18.885Z,99709.97
2023-01-27T01:58:50.362Z,99714.13
2023-01-27T02:01:20.336Z,99710.78
2023-01-27T02:03:54.185Z,99707.44
2023-01-27T02:06:23.338Z,99704.06
2023-01-27T02:08:53.035Z,99704.06
2023-01-27T02:11:22.206Z,99694.81
2023-01-27T02:13:52.756Z,99698.19
2023-01-27T02:16:21.388Z,99700.72
2023-01-27T02:18:50.729Z,99693.13
2023-01-27T02:21:19.818Z,99691.44
2023-01-27T02:23:58.447Z,99690.63
2023-01-27T02:26:31.478Z,99698.28
2023-01-27T02:29:05.291Z,99691.56
2023-01-27T02:31:34.369Z,99692.31
2023-01-27T02:34:07.732Z,99690.69
2023-01-27T02:36:41.801Z,99690.63
2023-01-27T02:39:13.982Z,99693.97
2023-01-27T02:41:47.559Z,99694.81
2023-01-27T02:44:16.256Z,99694.81
2023-01-27T02:46:45.882Z,99693.16
2023-01-27T02:49:15.239Z,99694.03
2023-01-27T02:51:44.037Z,99692.31
2023-01-27T02:54:15.231Z,99699.03
2023-01-27T02:56:45.287Z,99700.72
2023-01-27T02:59:17.165Z,99699.88
2023-01-27T03:01:46.051Z,99706.59
2023-01-27T03:04:15.930Z,99709.09
2023-01-27T03:06:44.649Z,99711.59
2023-01-27T03:09:13.454Z,99699.81
2023-01-27T03:11:59.789Z,99705.69
2023-01-27T03:14:47.038Z,99706.56
2023-01-27T03:17:33.299Z,99709.13
2023-01-27T03:20:01.930Z,99701.53
2023-01-27T03:22:31.636Z,99706.56
2023-01-27T03:25:01.681Z,99704.00
2023-01-27T03:27:30.486Z,99711.59
2023-01-27T03:30:19.436Z,99704.94
2023-01-27T03:32:58.447Z,99708.31
2023-01-27T03:35:49.304Z,99713.38
2023-01-27T03:38:40.138Z,99710.00
2023-01-27T03:41:26.393Z,99712.53
2023-01-27T03:44:12.656Z,99709.16
2023-01-27T03:46:42.974Z,99715.09
2023-01-27T03:49:11.598Z,99717.63
2023-01-27T03:51:40.243Z,99720.16
2023-01-27T03:54:09.921Z,99717.59
2023-01-27T03:56:38.521Z,99725.16
2023-01-27T03:59:07.181Z,99721.72
2023-01-27T04:01:36.019Z,99727.59
2023-01-27T04:04:23.818Z,99726.72
2023-01-27T04:07:02.990Z,99721.66
2023-01-27T04:09:34.127Z,99721.72
2023-01-27T04:12:04.709Z,99721.72
2023-01-27T04:14:35.188Z,99726.78
2023-01-27T04:17:06.932Z,99724.25
2023-01-27T04:19:36.967Z,99724.22
2023-01-27T04:22:07.803Z,99715.75
2023-01-27T04:24:36.446Z,99721.66
2023-01-27T04:27:07.266Z,99728.34
2023-01-27T04:29:37.961Z,99729.25
2023-01-27T04:32:07.839Z,99731.78
2023-01-27T04:34:38.267Z,99730.91
2023-01-27T04:37:08.923Z,99734.34
2023-01-27T04:39:37.958Z,99735.16
2023-01-27T04:42:06.993Z,99733.50
2023-01-27T04:44:35.549Z,99728.50
2023-01-27T04:47:04.166Z,99729.31
2023-01-27T04:49:32.821Z,99727.63
2023-01-27T04:52:02.825Z,99728.44
2023-01-27T04:54:31.800Z,99727.69
2023-01-27T04:57:03.547Z,99738.63
2023-01-27T04:59:32.491Z,99737.81
2023-01-27T05:02:01.234Z,99742.88
2023-01-27T05:04:30.007Z,99747.03
2023-01-27T05:06:58.622Z,99741.97
2023-01-27T05:09:28.601Z,99742.75
2023-01-27T05:11:57.199Z,99736.88
2023-01-27T05:14:26.166Z,99736.88
2023-01-27T05:16:54.791Z,99741.09
2023-01-27T05:19:23.548Z,99739.44
2023-01-27T05:21:52.158Z,99739.50
2023-01-27T05:24:20.817Z,99735.28
2023-01-27T05:26:51.056Z,99735.31
2023-01-27T05:29:19.677Z,99736.09
2023-01-27T05:31:48.344Z,99748.69
2023-01-27T05:34:17.091Z,99740.22
2023-01-27T05:36:45.727Z,99741.09
2023-01-27T05:39:14.563Z,99741.03
2023-01-27T05:41:43.220Z,99737.66
2023-01-27T05:44:14.188Z,99758.69
2023-01-27T05:46:43.647Z,99757.88
2023-01-27T05:49:12.445Z,99761.22
2023-01-27T05:51:41.652Z,99764.50
2023-01-27T05:54:11.151Z,99767.84
2023-01-27T05:56:40.835Z,99766.97
2023-01-27T05:59:12.609Z,99762.75
2023-01-27T06:01:41.357Z,99763.63
2023-01-27T06:04:13.242Z,99766.09
2023-01-27T06:06:41.954Z,99768.56
2023-01-27T06:09:11.735Z,99775.22
2023-01-27T06:11:40.409Z,99765.09
2023-01-27T06:14:09.032Z,99770.16
2023-01-27T06:16:39.053Z,99761.72
2023-01-27T06:19:07.689Z,99760.03
2023-01-27T06:21:36.325Z,99763.38
2023-01-27T06:24:05.574Z,99754.09
2023-01-27T06:26:34.283Z,99757.41
2023-01-27T06:29:03.015Z,99760.72
2023-01-27T06:31:31.777Z,99759.88
2023-01-27T06:34:01.804Z,99765.78
2023-01-27T06:36:30.583Z,99766.66
2023-01-27T06:38:59.272Z,99772.50
2023-01-27T06:41:27.974Z,99776.72
2023-01-27T06:43:56.691Z,99785.16
2023-01-27T06:46:25.403Z,99786.78
2023-01-27T06:48:53.991Z,99795.28
2023-01-27T06:51:24.058Z,99789.38
2023-01-27T06:53:52.637Z,99805.41
2023-01-27T06:56:21.254Z,99802.91
2023-01-27T06:58:50.352Z,99802.03
2023-01-27T07:01:19.143Z,99802.88
2023-01-27T07:03:47.834Z,99807.94
2023-01-27T07:06:19.042Z,99802.91
2023-01-27T07:08:50.549Z,99813.94
2023-01-27T07:11:19.194Z,99815.63
2023-01-27T07:13:47.792Z,99815.63
2023-01-27T07:16:16.412Z,99814.81
2023-01-27T07:18:45.205Z,99822.41
2023-01-27T07:21:13.804Z,99823.22
2023-01-27T07:23:42.474Z,99833.44
2023-01-27T07:26:24.331Z,99841.03
2023-01-27T07:28:54.177Z,99830.91
2023-01-27T07:31:22.884Z,99828.38
2023-01-27T07:33:51.614Z,99836.78
2023-01-27T07:36:20.260Z,99835.13
2023-01-27T07:38:51.085Z,99839.31
2023-01-27T07:41:23.049Z,99848.53
2023-01-27T07:43:52.534Z,99851.00
2023-01-27T07:46:21.581Z,99851.91
2023-01-27T07:48:50.367Z,99848.44
2023-01-27T07:51:19.079Z,99853.50
2023-01-27T07:53:48.368Z,99855.13
2023-01-27T07:56:16.975Z,99852.59
2023-01-27T07:58:47.121Z,99852.59
2023-01-27T08:01:16.074Z,99861.84
2023-01-27T08:03:44.778Z,99861.91
2023-01-27T08:06:14.636Z,99866.09
2023-01-27T08:08:43.734Z,99858.56
2023-01-27T08:11:15.270Z,99864.44
2023-01-27T08:13:44.398Z,99861.09
2023-01-27T08:16:16.649Z,99868.63
2023-01-27T08:18:45.334Z,99861.03
2023-01-27T08:21:14.822Z,99865.19
2023-01-27T08:23:43.524Z,99866.00
2023-01-27T08:26:12.263Z,99875.19
2023-01-27T08:28:41.994Z,99870.06
2023-01-27T08:31:17.245Z,99875.94
2023-01-27T08:33:50.744Z,99870.88
2023-01-27T08:36:21.168Z,99875.88
2023-01-27T08:38:50.443Z,99872.44
2023-01-27T08:41:21.512Z,99880.00
2023-01-27T08:43:51.133Z,99874.09
2023-01-27T08:46:21.208Z,99875.75
2023-01-27T08:48:50.391Z,99879.94
2023-01-27T08:51:19.525Z,99889.16
2023-01-27T08:53:48.173Z,99881.56
2023-01-27T08:56:17.804Z,99885.66
2023-01-27T08:58:48.441Z,99892.38
2023-01-27T09:01:22.104Z,99894.91
2023-01-27T09:03:51.565Z,99892.38
2023-01-27T09:06:21.782Z,99888.97
2023-01-27T09:09:11.222Z,99902.44
2023-01-27T09:11:43.012Z,99899.00
2023-01-27T09:14:12.945Z,99898.13
2023-01-27T09:16:46.901Z,99896.41
2023-01-27T09:19:15.613Z,99899.78
2023-01-27T09:21:45.940Z,99902.31
2023-01-27T09:24:17.902Z,99908.25
2023-01-27T09:26:46.821Z,99909.91
2023-01-27T09:29:15.494Z,99912.44
2023-01-27T09:31:45.577Z,99909.03
2023-01-27T09:34:14.237Z,99906.50
2023-01-27T09:36:46.487Z,99918.28
2023-01-27T09:39:20.072Z,99920.00
2023-01-27T09:42:29.533Z,99931.84
2023-01-27T09:45:33.431Z,99923.38
2023-01-27T09:48:28.443Z,99931.84
2023-01-27T09:51:04.173Z,99929.38
2023-01-27T09:54:10.426Z,99924.31
2023-01-27T09:56:53.115Z,99925.16
2023-01-27T09:59:42.388Z,99927.75
2023-01-27T10:02:30.486Z,99926.84
2023-01-27T10:06:00.505Z,99931.03
2023-01-27T10:09:10.880Z,99929.38
2023-01-27T10:11:50.072Z,99924.31
2023-01-27T10:14:35.090Z,99924.25
2023-01-27T10:17:33.094Z,99925.13
2023-01-27T10:20:18.661Z,99932.72
2023-01-27T10:23:01.564Z,99924.25
2023-01-27T10:25:45.765Z,99914.91
2023-01-27T10:28:17.912Z,99913.16
2023-01-27T10:30:53.827Z,99913.13
2023-01-27T10:33:28.592Z,99917.28
2023-01-27T10:36:03.818Z,99902.88
2023-01-27T10:38:40.474Z,99904.53
2023-01-27T10:41:24.758Z,99903.63
2023-01-27T10:44:10.769Z,99906.97
2023-01-27T10:46:52.971Z,99895.94
2023-01-27T10:49:27.481Z,99893.41
2023-01-27T10:52:02.052Z,99897.56
2023-01-27T10:54:37.226Z,99906.03
2023-01-27T10:57:11.285Z,99903.50
2023-01-27T11:00:05.261Z,99900.03
2023-01-27T11:02:42.204Z,99896.59
2023-01-27T11:05:17.406Z,99895.72
2023-01-27T11:07:53.941Z,99885.59
2023-01-27T11:10:24.813Z,99886.38
2023-01-27T11:12:57.813Z,99893.91
2023-01-27T11:15:31.518Z,99888.00
2023-01-27T11:18:09.555Z,99891.31
2023-01-27T11:20:41.870Z,99889.66
2023-01-27T11:23:18.927Z,99881.19
2023-01-27T11:25:56.734Z,99882.84
2023-01-27T11:28:37.427Z,99875.25
2023-01-27T11:31:16.523Z,99881.13
2023-01-27T11:33:58.223Z,99873.53
2023-01-27T11:36:27.231Z,99868.47
2023-01-27T11:38:59.231Z,99874.31
2023-01-27T11:41:28.139Z,99881.84
2023-01-27T11:43:56.852Z,99876.84
2023-01-27T11:46:26.150Z,99881.84
2023-01-27T11:48:58.545Z,99871.72
2023-01-27T11:51:40.641Z,99874.25
2023-01-27T11:54:19.157Z,99876.00
2023-01-27T11:56:50.150Z,99869.28
2023-01-27T11:59:22.639Z,99873.53
2023-01-27T12:01:57.998Z,99878.53
2023-01-27T12:04:49.164Z,99881.06
2023-01-27T12:07:24.856Z,99881.91
2023-01-27T12:09:54.916Z,99879.38
2023-01-27T12:12:26.448Z,99881.84
2023-01-27T12:14:57.692Z,99882.66
2023-01-27T12:17:35.845Z,99880.13
2023-01-27T12:20:24.458Z,99881.84
2023-01-27T12:22:59.079Z,99877.66
2023-01-27T12:25:33.482Z,99877.66
2023-01-27T12:28:05.845Z,99874.38
2023-01-27T12:30:39.083Z,99877.78
2023-01-27T12:33:15.665Z,99877.78
2023-01-27T12:35:50.402Z,99872.72
2023-01-27T12:38:22.900Z,99869.28
2023-01-27T12:40:59.967Z,99872.59
2023-01-27T12:43:28.951Z,99869.19
2023-01-27T12:46:10.099Z,99869.88
2023-01-27T12:48:50.010Z,99872.47
2023-01-27T12:51:22.565Z,99869.06
2023-01-27T12:53:52.801Z,99868.25
2023-01-27T12:56:25.033Z,99870.84
2023-01-27T12:58:59.560Z,99864.13
2023-01-27T13:01:31.318Z,99865.81
2023-01-27T13:04:04.216Z,99868.31
2023-01-27T13:06:42.240Z,99857.38
2023-01-27T13:09:27.677Z,99851.50
2023-01-27T13:12:01.340Z,99860.72
2023-01-27T13:14:31.904Z,99853.97
2023-01-27T13:17:00.741Z,99860.69
2023-01-27T13:19:44.040Z,99859.81
2023-01-27T13:22:20.196Z,99863.19
2023-01-27T13:24:53.003Z,99859.84
2023-01-27T13:27:24.451Z,99861.53
2023-01-27T13:30:01.994Z,99858.94
2023-01-27T13:32:34.448Z,99857.19
2023-01-27T13:35:11.919Z,99858.00
2023-01-27T13:37:47.529Z,99851.25
2023-01-27T13:40:22.762Z,99855.44
2023-01-27T13:42:57.627Z,99859.66
2023-01-27T13:45:34.949Z,99858.81
2023-01-27T13:48:07.521Z,99860.47
2023-01-27T13:50:39.947Z,99865.53
2023-01-27T13:53:14.121Z,99863.00
2023-01-27T13:55:59.367Z,99860.47
2023-01-27T13:58:44.807Z,99854.53
2023-01-27T14:01:25.752Z,99856.19
2023-01-27T14:04:26.534Z,99857.88
2023-01-27T14:07:06.650Z,99865.41
2023-01-27T14:09:50.661Z,99863.66
2023-01-27T14:12:41.209Z,99856.00
2023-01-27T14:15:24.375Z,99859.31
2023-01-27T14:18:01.288Z,99860.94
2023-01-27T14:20:41.862Z,99860.13
2023-01-27T14:23:32.734Z,99860.88
2023-01-27T14:26:15.402Z,99865.13
2023-01-27T14:29:02.417Z,99860.00
2023-01-27T14:31:47.358Z,99862.53
2023-01-27T14:34:46.070Z,99865.94
2023-01-27T14:37:26.177Z,99871.00
2023-01-27T14:40:13.225Z,99877.69
2023-01-27T14:42:49.755Z,99880.16
2023-01-27T14:45:24.330Z,99885.28
2023-01-27T14:48:04.128Z,99881.88
2023-01-27T14:50:41.517Z,99881.00
2023-01-27T14:53:33.847Z,99891.97
2023-01-27T14:56:12.916Z,99898.69
2023-01-27T14:58:53.919Z,99900.34
2023-01-27T15:01:35.047Z,99900.22
2023-01-27T15:04:42.219Z,99899.44
2023-01-27T15:07:19.272Z,99906.25
2023-01-27T15:10:18.738Z,99904.50
2023-01-27T15:13:29.609Z,99905.41
2023-01-27T15:16:27.542Z,99906.25
2023-01-27T15:19:14.786Z,99926.56
2023-01-27T15:22:31.224Z,99921.50
2023-01-27T15:25:22.483Z,99924.03
2023-01-27T15:27:54.473Z,99924.91
2023-01-27T15:30:31.814Z,99928.25
2023-01-27T15:33:00.483Z,99923.97
2023-01-27T15:35:46.961Z,99930.66
2023-01-27T15:38:33.972Z,99926.44
2023-01-27T15:41:16.581Z,99922.22
2023-01-27T15:44:16.985Z,99925.59
2023-01-27T15:46:47.462Z,99924.72
2023-01-27T15:49:22.860Z,99930.59
2023-01-27T15:51:54.022Z,99933.97
2023-01-27T15:54:27.474Z,99932.25
2023-01-27T15:56:57.233Z,99939.03
2023-01-27T15:59:28.074Z,99930.53
2023-01-27T16:02:06.517Z,99927.13
2023-01-27T16:04:35.917Z,99927.13
2023-01-27T16:07:06.305Z,99922.88
2023-01-27T16:09:42.454Z,99923.72
2023-01-27T16:12:40.385Z,99931.31
2023-01-27T16:15:33.354Z,99927.94
2023-01-27T16:18:24.807Z,99938.94
2023-01-27T16:21:01.199Z,99935.50
2023-01-27T16:23:46.284Z,99937.13
2023-01-27T16:26:30.537Z,99945.66
2023-01-27T16:29:22.039Z,99949.88
2023-01-27T16:31:53.930Z,99949.06
2023-01-27T16:34:28.072Z,99950.72
2023-01-27T16:37:05.999Z,99968.47
2023-01-27T16:39:45.735Z,99957.47
2023-01-27T16:42:17.981Z,99959.22
2023-01-27T16:44:49.572Z,99959.22
2023-01-27T16:47:26.572Z,99967.69
2023-01-27T16:49:56.407Z,99960.88
2023-01-27T16:52:41.678Z,99958.34
2023-01-27T16:55:22.954Z,99968.50
2023-01-27T16:57:54.699Z,99967.69
2023-01-27T17:00:27.658Z,99973.56
2023-01-27T17:03:00.779Z,99971.88
2023-01-27T17:05:29.989Z,99976.97
2023-01-27T17:08:18.025Z,99967.63
2023-01-27T17:10:51.452Z,99974.41
2023-01-27T17:13:33.468Z,99971.88
2023-01-27T17:16:06.320Z,99979.44
2023-01-27T17:18:51.701Z,99985.31
2023-01-27T17:21:38.259Z,99979.44
2023-01-27T17:24:16.243Z,99981.16
2023-01-27T17:26:50.047Z,99984.50
2023-01-27T17:29:23.017Z,99981.97
2023-01-27T17:31:52.225Z,99984.50
2023-01-27T17:34:22.541Z,99980.25
2023-01-27T17:37:16.106Z,99986.09
2023-01-27T17:39:46.171Z,99986.09
2023-01-27T17:42:17.079Z,99985.25
2023-01-27T17:44:48.616Z,99985.22
2023-01-27T17:47:20.196Z,99985.22
2023-01-27T17:49:51.155Z,99989.44
2023-01-27T17:52:23.357Z,99993.66
2023-01-27T17:54:53.010Z,99989.44
2023-01-27T17:57:24.850Z,99991.19
2023-01-27T18:00:04.201Z,99983.56
2023-01-27T18:02:54.220Z,99998.78
2023-01-27T18:05:26.325Z,99999.66
2023-01-27T18:07:55.879Z,99992.91
2023-01-27T18:10:28.017Z,100002.19
2023-01-27T18:12:58.970Z,99998.06
2023-01-27T18:15:42.657Z,100007.38
2023-01-27T18:18:24.789Z,100002.31
2023-01-27T18:21:06.912Z,99998.09
2023-01-27T18:23:38.530Z,99993.03
2023-01-27T18:26:16.644Z,100006.50
2023-01-27T18:28:47.078Z,99999.78
2023-01-27T18:31:23.213Z,100002.25
2023-01-27T18:34:00.636Z,100007.31
2023-01-27T18:36:35.538Z,100009.84
2023-01-27T18:39:07.180Z,100019.19
2023-01-27T18:41:38.196Z,100010.72
2023-01-27T18:44:08.483Z,100015.03
2023-01-27T18:46:38.694Z,100018.41
2023-01-27T18:49:11.735Z,100021.81
2023-01-27T18:51:40.305Z,100028.66
2023-01-27T18:54:11.830Z,100034.53
2023-01-27T18:56:40.657Z,100025.25
2023-01-27T18:59:13.503Z,100029.47
2023-01-27T19:01:43.584Z,100026.13
2023-01-27T19:04:13.000Z,100025.25
2023-01-27T19:06:41.720Z,100025.25
2023-01-27T19:09:11.890Z,100026.06
2023-01-27T19:11:40.548Z,100032.84
2023-01-27T19:14:09.292Z,100029.53
2023-01-27T19:16:38.634Z,100031.19
2023-01-27T19:19:11.894Z,100032.88
2023-01-27T19:21:40.497Z,100028.72
2023-01-27T19:24:12.149Z,100030.44
2023-01-27T19:26:40.907Z,100038.06
2023-01-27T19:29:12.964Z,100028.78
2023-01-27T19:31:41.708Z,100031.31
2023-01-27T19:34:12.785Z,100032.94
2023-01-27T19:36:45.725Z,100038.00
2023-01-27T19:39:17.349Z,100044.72
2023-01-27T19:41:46.908Z,100041.31
2023-01-27T19:44:16.127Z,100038.84
2023-01-27T19:46:45.074Z,100048.13
2023-01-27T19:49:18.159Z,100044.84
2023-01-27T19:51:47.373Z,100040.66
2023-01-27T19:54:17.076Z,100041.47
2023-01-27T19:56:46.551Z,100049.13
2023-01-27T19:59:15.186Z,100052.50
2023-01-27T20:01:44.462Z,100060.13
2023-01-27T20:04:14.515Z,100058.44
2023-01-27T20:06:43.243Z,100059.25
2023-01-27T20:09:12.366Z,100064.34
2023-01-27T20:11:42.470Z,100063.47
2023-01-27T20:14:15.080Z,100065.19
2023-01-27T20:16:44.380Z,100065.19
2023-01-27T20:19:16.091Z,100066.81
2023-01-27T20:21:45.635Z,100066.00
2023-01-27T20:24:17.210Z,100069.34
2023-01-27T20:26:46.306Z,100064.34
2023-01-27T20:29:14.944Z,100065.22
2023-01-27T20:31:44.135Z,100067.75
2023-01-27T20:34:14.208Z,100071.19
2023-01-27T20:36:42.879Z,100065.25
2023-01-27T20:39:12.285Z,100062.78
2023-01-27T20:41:41.010Z,100070.38
2023-01-27T20:44:13.084Z,100070.44
2023-01-27T20:46:41.746Z,100069.63
2023-01-27T20:49:10.269Z,100064.56
2023-01-27T20:51:40.283Z,100072.22
2023-01-27T20:54:09.142Z,100070.56
2023-01-27T20:56:37.718Z,100074.75
2023-01-27T20:59:06.461Z,100073.91
2023-01-27T21:01:35.211Z,100072.22
2023-01-27T21:04:04.013Z,100077.28
2023-01-27T21:06:32.710Z,100075.56
2023-01-27T21:09:02.703Z,100083.19
2023-01-27T21:11:31.631Z,100082.31
2023-01-27T21:14:00.283Z,100081.47
2023-01-27T21:16:28.946Z,100093.31
2023-01-27T21:18:57.608Z,100079.81
2023-01-27T21:21:29.399Z,100085.72
2023-01-27T21:24:00.065Z,100090.78
2023-01-27T21:26:30.177Z,100088.25
2023-01-27T21:28:58.735Z,100093.31
2023-01-27T21:31:30.169Z,100099.25
2023-01-27T21:34:00.951Z,100094.19
2023-01-27T21:36:30.376Z,100101.78
2023-01-27T21:39:00.857Z,100095.03
2023-01-27T21:41:48.416Z,100095.91
2023-01-27T21:44:37.573Z,100093.44
2023-01-27T21:47:08.269Z,100106.97
2023-01-27T21:49:59.316Z,100100.19
2023-01-27T21:52:34.088Z,100094.28
2023-01-27T21:55:04.442Z,100097.66
2023-01-27T21:57:35.576Z,100108.63
2023-01-27T22:00:05.413Z,100110.31
2023-01-27T22:02:41.122Z,100106.97
2023-01-27T22:05:10.935Z,100107.72
2023-01-27T22:07:40.659Z,100096.78
2023-01-27T22:10:15.350Z,100103.50
2023-01-27T22:12:45.850Z,100100.13
2023-01-27T22:15:16.964Z,100096.72
2023-01-27T22:17:46.509Z,100101.78
2023-01-27T22:20:16.257Z,100098.44
2023-01-27T22:22:45.357Z,100102.63
2023-01-27T22:25:16.969Z,100103.44
2023-01-27T22:27:47.965Z,100093.31
2023-01-27T22:30:19.730Z,100101.69
2023-01-27T22:32:48.916Z,100100.81
2023-01-27T22:35:19.591Z,100094.94
2023-01-27T22:37:49.780Z,100102.53
2023-01-27T22:40:18.820Z,100098.28
2023-01-27T22:42:49.799Z,100103.34
2023-01-27T22:45:19.222Z,100099.06
2023-01-27T22:47:49.505Z,100097.41
2023-01-27T22:50:20.298Z,100102.41
2023-01-27T22:52:48.930Z,100098.16
2023-01-27T22:55:17.901Z,100092.22
2023-01-27T22:57:48.914Z,100095.63
2023-01-27T23:00:18.593Z,100098.16
2023-01-27T23:02:47.229Z,100086.34
2023-01-27T23:05:16.284Z,100088.03
2023-01-27T23:07:45.226Z,100086.38
2023-01-27T23:10:13.846Z,100094.88
2023-01-27T23:12:42.510Z,100088.13
2023-01-27T23:15:13.606Z,100088.13
2023-01-27T23:17:42.490Z,100095.75
2023-01-27T23:20:13.221Z,100089.91
2023-01-27T23:22:41.959Z,100094.19
2023-01-27T23:25:11.687Z,100097.66
2023-01-27T23:27:41.597Z,100088.44
2023-01-27T23:30:13.572Z,100098.56
2023-01-27T23:32:42.298Z,100095.28
2023-01-27T23:35:11.465Z,100083.41
2023-01-27T23:37:40.151Z,100087.63
2023-01-27T23:40:10.835Z,100090.97
2023-01-27T23:42:40.141Z,100092.69
2023-01-27T23:45:11.743Z,100096.09
2023-01-27T23:47:40.466Z,100103.69
2023-01-27T23:50:10.556Z,100099.50
2023-01-27T23:52:39.279Z,100097.88
2023-01-27T23:55:09.480Z,100097.88
2023-01-27T23:57:38.065Z,100090.31
